Latest Weather Observations for Eildon Fire Tower

IDV60801

Issued at 8:32 pm EDT Friday 20 January 2017 (issued every 30 minutes, with the page automatically refreshed every 10 minutes)

About weather observations | Map of weather stations | Latest weather observations for VIC | Other Formats
Station Details ID: 088164 Name: EILDON FIRE TOWER Lat: -37.21 Lon: 145.84 Height: 637.0 m
Data from the previous 72 hours. | See also: Recent months at Eildon Fire Tower
Date/Time
EDT
Temp
°C
App
Temp
°C
Dew
Point
°C
Rel
Hum
%
Delta-T
°C
Wind Press
QNH
hPa
Press
MSL
hPa
Rain since
9am
mm
Dir  Spd
km/h
Gust
km/h
Spd
kts
Gust
kts
20/08:30pm 12.5 8.5 9.1 80 1.8 WSW 20 32 11 17 - - 1.6
20/08:00pm 12.8 6.6 9.3 79 1.8 WSW 32 54 17 29 - - 1.6
20/07:44pm 12.9 6.1 9.4 79 1.8 SW 35 54 19 29 - - 1.6
20/07:30pm 13.1 5.6 9.5 79 1.9 SW 39 54 21 29 - - 1.6
20/07:00pm 13.5 5.4 9.9 79 1.9 WSW 43 61 23 33 - - 1.6
20/06:47pm 13.7 6.4 10.3 80 1.8 WSW 39 59 21 32 - - 1.6
20/06:30pm 13.6 5.3 10.2 80 1.8 SW 44 57 24 31 - - 1.6
20/06:05pm 14.1 7.2 10.3 78 2.0 WSW 37 56 20 30 - - 1.6
20/06:00pm 14.1 6.8 10.1 77 2.1 SW 39 57 21 31 - - 1.6
20/05:30pm 14.2 8.2 10.0 76 2.3 SW 32 57 17 31 - - 1.6
20/05:10pm 14.4 8.3 9.8 74 2.5 SW 32 52 17 28 - - 1.6
20/05:00pm 14.3 7.9 9.5 73 2.5 SW 33 50 18 27 - - 1.6
20/04:30pm 14.4 6.5 9.4 72 2.7 SW 41 63 22 34 - - 1.6
20/04:00pm 14.6 6.1 9.2 70 2.9 SW 44 70 24 38 - - 1.6
20/03:30pm 13.6 6.3 10.2 80 1.8 SW 39 59 21 32 - - 1.6
20/03:16pm 13.9 8.8 10.7 81 1.7 SW 28 46 15 25 - - 1.6
20/03:00pm 13.7 7.9 11.4 86 1.3 SW 33 46 18 25 - - 1.6
20/02:35pm 13.6 5.4 11.8 89 1.0 WSW 46 65 25 35 - - 1.6
20/02:30pm 13.6 5.0 11.8 89 1.0 WSW 48 65 26 35 - - 1.6
20/02:13pm 13.6 7.4 12.5 93 0.6 WSW 37 63 20 34 - - 1.6
20/02:00pm 14.1 7.0 13.5 96 0.3 WSW 43 59 23 32 - - 1.6
20/01:48pm 13.7 6.3 12.4 92 0.7 WSW 43 61 23 33 - - 1.6
20/01:30pm 14.5 7.5 12.5 88 1.1 WSW 41 57 22 31 - - 1.6
20/01:00pm 14.7 7.3 12.9 89 1.0 WSW 44 67 24 36 - - 1.6
20/12:30pm 14.9 8.0 14.6 98 0.2 WSW 44 69 24 37 - - 1.6
20/12:17pm 15.7 10.8 15.4 98 0.2 WSW 35 57 19 31 - - 1.6
20/12:00pm 15.7 10.1 15.4 98 0.2 WSW 39 56 21 30 - - 1.6
20/11:55am 15.9 10.7 15.6 98 0.2 WSW 37 56 20 30 - - 1.6
20/11:30am 16.3 12.6 16.0 98 0.2 W 30 41 16 22 - - 1.2
20/11:00am 16.1 13.1 15.8 98 0.2 WSW 26 37 14 20 - - 1.2
20/10:30am 15.6 13.5 15.3 98 0.2 W 20 32 11 17 - - 1.2
20/10:00am 15.1 13.4 14.8 98 0.2 W 17 22 9 12 - - 1.2
20/09:30am 15.1 12.9 14.8 98 0.2 WSW 20 30 11 16 - - 1.2
20/09:00am 15.1 14.6 14.8 98 0.2 WNW 11 24 6 13 - - 25.2
20/08:30am 14.7 12.9 14.4 98 0.2 NE 17 26 9 14 - - 21.4
20/08:00am 14.6 12.4 14.3 98 0.2 NE 19 28 10 15 - - 20.6
20/07:30am 14.2 11.3 13.9 98 0.2 NE 22 33 12 18 - - 20.6
20/07:00am 13.6 9.7 13.3 98 0.2 NE 26 33 14 18 - - 18.6
20/06:30am 13.5 10.7 13.2 98 0.2 NE 20 28 11 15 - - 14.0
20/06:00am 13.4 10.2 13.1 98 0.2 NE 22 30 12 16 - - 12.8
20/05:30am 13.2 9.6 12.9 98 0.2 ENE 24 32 13 17 - - 12.2
20/05:00am 13.1 12.2 12.6 97 0.3 E 9 13 5 7 - - 11.4
20/04:30am 13.1 10.3 12.5 96 0.3 SW 19 26 10 14 - - 8.6
20/04:00am 13.6 7.8 12.7 94 0.5 WSW 35 48 19 26 - - 3.6
20/03:30am 15.4 8.9 11.8 79 2.0 WSW 37 70 20 38 - - 1.2
20/03:27am 16.5 10.9 11.4 72 2.8 W 32 70 17 38 - - 1.0
20/03:26am 16.8 12.1 11.9 73 2.8 W 28 52 15 28 - - 1.0
20/03:00am 22.0 19.6 8.5 42 7.4 NE 11 15 6 8 - - 0.0
20/02:30am 21.9 18.0 8.8 43 7.2 ENE 19 22 10 12 - - 0.0
20/02:00am 21.8 18.4 9.0 44 7.0 NE 17 20 9 11 - - 0.0
20/01:30am 22.4 19.8 7.8 39 7.9 NNE 11 15 6 8 - - 0.0
20/01:00am 21.9 19.5 8.8 43 7.2 NNE 11 13 6 7 - - 0.0
20/12:30am 21.8 20.0 9.3 45 6.9 NNE 9 13 5 7 - - 0.0
20/12:00am 21.4 18.5 9.6 47 6.5 NE 15 20 8 11 - - 0.0
 
Date/Time
EDT
Temp
°C
App
Temp
°C
Dew
Point
°C
Rel
Hum
%
Delta-T
°C
Wind Press
QNH
hPa
Press
MSL
hPa
Rain since
9am
mm
Dir  Spd
km/h
Gust
km/h
Spd
kts
Gust
kts
19/11:30pm 21.7 20.8 9.3 45 6.8 NNE 4 6 2 3 - - 0.0
19/11:00pm 22.3 19.9 8.8 42 7.4 NNE 11 17 6 9 - - 0.0
19/10:30pm 22.0 18.8 9.9 46 6.8 NE 17 20 9 11 - - 0.0
19/10:00pm 23.5 19.9 4.9 30 9.6 E 13 19 7 10 - - 0.0
19/09:30pm 24.2 21.9 4.6 28 10.1 SSW 6 7 3 4 - - 0.0
19/09:00pm 24.3 22.1 5.1 29 10.0 SSW 6 6 3 3 - - 0.0
19/08:30pm 24.6 22.7 4.9 28 10.2 SSW 4 6 2 3 - - 0.0
19/08:00pm 24.9 22.5 5.2 28 10.3 SSW 7 9 4 5 - - 0.0
19/07:30pm 25.6 23.4 5.2 27 10.7 W 6 7 3 4 - - 0.0
19/07:00pm 26.7 25.6 6.7 28 10.8 NNW 2 6 1 3 - - 0.0
19/06:30pm 26.0 23.4 6.1 28 10.6 N 9 15 5 8 - - 0.0
19/06:00pm 27.4 25.2 6.2 26 11.4 NE 7 11 4 6 - - 0.0
19/05:30pm 27.4 25.1 5.6 25 11.6 ENE 7 13 4 7 - - 0.0
19/05:00pm 28.1 26.1 4.4 22 12.4 ESE 4 9 2 5 - - 0.0
19/04:30pm 28.0 25.8 6.2 25 11.8 W 7 13 4 7 - - 0.0
19/04:00pm 27.4 25.3 5.6 25 11.6 NNW 6 9 3 5 - - 0.0
19/03:30pm 27.0 24.4 5.9 26 11.3 SW 9 17 5 9 - - 0.0
19/03:00pm 27.5 25.2 5.7 25 11.7 WSW 7 13 4 7 - - 0.0
19/02:30pm 25.9 23.7 6.0 28 10.6 WSW 7 13 4 7 - - 0.0
19/02:00pm 25.8 23.6 6.4 29 10.4 S 7 13 4 7 - - 0.0
19/01:30pm 24.1 21.8 5.5 30 9.7 S 7 13 4 7 - - 0.0
19/01:00pm 23.7 21.4 5.6 31 9.4 W 7 13 4 7 - - 0.0
19/12:30pm 23.4 21.5 6.7 34 8.9 S 6 11 3 6 - - 0.0
19/12:00pm 21.2 18.7 3.9 32 8.6 NNE 6 9 3 5 - - 0.0
19/11:30am 20.6 17.8 6.9 41 7.2 NE 11 17 6 9 - - 0.0
19/11:00am 20.2 17.9 4.7 36 7.8 NE 6 11 3 6 - - 0.0
19/10:30am 18.0 15.5 3.5 38 7.0 ENE 6 9 3 5 - - 0.0
19/10:00am 17.4 14.6 3.3 39 6.8 E 7 13 4 7 - - 0.0
19/09:30am 15.1 12.6 3.6 46 5.4 E 6 11 3 6 - - 0.0
19/09:00am 14.2 11.7 3.7 49 4.9 E 6 9 3 5 - - 0.0
19/08:30am 13.1 10.2 1.5 45 5.2 ESE 6 9 3 5 - - 0.0
19/08:00am 12.7 9.8 2.6 50 4.6 E 7 9 4 5 - - 0.0
19/07:30am 11.5 8.7 2.3 53 4.1 E 6 9 3 5 - - 0.0
19/07:00am 10.3 7.3 1.9 56 3.7 E 7 11 4 6 - - 0.0
19/06:30am 8.5 4.6 1.2 60 3.1 SE 11 15 6 8 - - 0.0
19/06:00am 8.7 6.1 1.1 59 3.2 SSE 4 7 2 4 - - 0.0
19/05:30am 8.8 6.5 0.5 56 3.5 S 2 4 1 2 - - 0.0
19/05:00am 9.7 5.6 -0.2 50 4.1 SE 11 17 6 9 - - 0.0
19/04:30am 10.1 5.6 -0.4 48 4.4 SSE 13 20 7 11 - - 0.0
19/04:00am 9.9 5.8 -0.3 49 4.2 SE 11 19 6 10 - - 0.0
19/03:30am 10.2 5.3 -0.3 48 4.4 SE 15 22 8 12 - - 0.0
19/03:00am 11.0 6.1 -0.5 45 4.8 SSE 15 24 8 13 - - 0.0
19/02:30am 10.9 7.1 -0.5 45 4.8 SSE 9 17 5 9 - - 0.0
19/02:00am 11.4 7.1 -2.0 39 5.4 SE 11 17 6 9 - - 0.0
19/01:30am 12.2 7.4 -2.4 36 5.9 SSE 13 24 7 13 - - 0.0
19/01:00am 12.0 6.3 -3.4 34 6.1 SE 17 35 9 19 - - 0.0
19/12:30am 12.0 7.7 -1.5 39 5.6 SE 11 17 6 9 - - 0.0
19/12:00am 12.3 7.0 -0.6 41 5.4 SE 17 26 9 14 - - 0.0
 
Date/Time
EDT
Temp
°C
App
Temp
°C
Dew
Point
°C
Rel
Hum
%
Delta-T
°C
Wind Press
QNH
hPa
Press
MSL
hPa
Rain since
9am
mm
Dir  Spd
km/h
Gust
km/h
Spd
kts
Gust
kts
18/11:30pm 12.3 8.7 2.7 52 4.4 SSE 11 17 6 9 - - 0.0
18/11:00pm 11.4 9.0 4.4 62 3.3 WSW 6 9 3 5 - - 0.0
18/10:30pm 12.4 8.7 4.6 59 3.7 SSW 13 19 7 10 - - 0.0
18/10:00pm 12.5 8.6 5.2 61 3.5 SW 15 20 8 11 - - 0.0
18/09:30pm 13.2 8.0 5.6 60 3.7 SSW 22 28 12 15 - - 0.0
18/09:00pm 14.0 8.8 5.6 57 4.1 SW 22 30 12 16 - - 0.0
18/08:30pm 15.4 10.2 5.3 51 5.0 SW 22 32 12 17 - - 0.0
18/08:00pm 16.9 11.6 5.2 46 5.8 SW 22 30 12 16 - - 0.0
18/07:30pm 18.2 12.1 4.7 41 6.7 SW 26 39 14 21 - - 0.0
18/07:00pm 19.3 12.4 4.6 38 7.3 WSW 30 41 16 22 - - 0.0
18/06:30pm 20.1 14.4 5.0 37 7.6 SW 24 35 13 19 - - 0.0
18/06:00pm 20.9 15.3 5.3 36 8.0 WSW 24 33 13 18 - - 0.0
18/05:30pm 20.7 14.6 4.7 35 8.1 SW 26 39 14 21 - - 0.0
18/05:00pm 21.1 15.1 5.5 36 8.0 WSW 26 39 14 21 - - 0.0
18/04:30pm 21.2 15.8 6.3 38 7.8 SW 24 41 13 22 - - 0.0
18/04:00pm 21.3 16.2 7.5 41 7.4 SW 24 37 13 20 - - 0.0
18/03:30pm 21.7 16.3 8.2 42 7.3 SW 26 39 14 21 - - 0.0
18/03:00pm 20.8 15.2 7.1 41 7.2 WSW 26 39 14 21 - - 0.0
18/02:30pm 20.6 14.5 6.5 40 7.3 WSW 28 46 15 25 - - 0.0
18/02:00pm 20.2 14.4 6.2 40 7.2 WSW 26 41 14 22 - - 0.0
18/01:30pm 19.5 13.4 6.6 43 6.7 WSW 28 43 15 23 - - 0.0
18/01:20pm 19.4 12.8 6.2 42 6.8 WSW 30 48 16 26 - - 0.0
18/01:00pm 19.2 12.8 7.0 45 6.4 WSW 30 43 16 23 - - 0.0
18/12:30pm 17.9 11.3 7.6 51 5.4 WSW 32 41 17 22 - - 0.0
18/12:00pm 18.9 14.2 9.4 54 5.2 WSW 24 39 13 21 - - 0.0
18/11:30am 18.6 14.9 10.2 58 4.6 WSW 20 37 11 20 - - 0.0
18/11:00am 17.3 13.3 10.4 64 3.8 WSW 22 32 12 17 - - 0.0
18/10:30am 15.4 11.8 10.6 73 2.6 WSW 20 28 11 15 - - 0.0
18/10:00am 15.4 10.8 11.2 76 2.3 WSW 26 35 14 19 - - 0.0
18/09:30am 14.3 9.0 11.3 82 1.7 SW 30 39 16 21 - - 0.0
18/09:00am 14.3 10.6 11.6 84 1.5 WSW 22 43 12 23 - - 0.0
18/08:30am 14.7 9.0 11.8 83 1.6 WSW 33 54 18 29 - - 0.0
18/08:03am 15.1 9.4 11.9 81 1.8 WSW 33 52 18 28 - - 0.0
18/08:00am 15.1 9.6 11.7 80 1.9 WSW 32 46 17 25 - - 0.0
18/07:30am 15.5 7.2 11.5 77 2.2 WSW 46 63 25 34 - - 0.0
18/07:11am 16.7 11.5 10.3 66 3.5 WSW 28 50 15 27 - - 0.0
18/07:00am 17.1 12.8 9.5 61 4.1 WSW 22 30 12 16 - - 0.0
18/06:30am 17.4 10.9 9.1 58 4.5 WSW 33 50 18 27 - - 0.0
18/06:21am 18.6 15.1 8.6 52 5.4 W 17 41 9 22 - - 0.0
18/06:00am 19.5 16.8 8.8 50 5.8 ENE 13 17 7 9 - - 0.0
18/05:30am 18.1 15.0 8.9 55 4.9 ENE 15 20 8 11 - - 0.0
18/05:00am 18.4 15.6 8.7 53 5.2 E 13 22 7 12 - - 0.0
18/04:30am 19.0 15.8 8.4 50 5.7 SE 15 24 8 13 - - 0.0
18/04:00am 18.5 13.0 9.0 54 5.1 SW 28 41 15 22 - - 0.0
18/03:30am 18.4 13.6 8.7 53 5.2 WSW 24 37 13 20 - - 0.0
18/03:00am 18.8 16.2 7.9 49 5.8 SW 11 15 6 8 - - 0.0
18/02:30am 19.6 18.0 8.0 47 6.2 ESE 6 9 3 5 - - 0.0
18/02:00am 20.4 18.5 6.7 41 7.2 SW 6 11 3 6 - - 0.0
18/01:30am 21.1 17.2 7.0 40 7.4 SSW 17 22 9 12 - - 0.0
18/01:00am 20.9 17.9 7.5 42 7.1 SW 13 22 7 12 - - 0.0
18/12:30am 21.5 16.4 7.7 41 7.4 SW 24 35 13 19 - - 0.0
18/12:00am 22.3 16.1 7.7 39 7.9 WSW 30 46 16 25 - - 0.0
 
Date/Time
EDT
Temp
°C
App
Temp
°C
Dew
Point
°C
Rel
Hum
%
Delta-T
°C
Wind Press
QNH
hPa
Press
MSL
hPa
Rain since
9am
mm
Dir  Spd
km/h
Gust
km/h
Spd
kts
Gust
kts
17/11:30pm 22.8 15.9 7.4 37 8.3 WSW 33 43 18 23 - - 0.0
17/11:04pm 25.2 18.9 7.3 32 9.7 WSW 30 50 16 27 - - 0.0
17/11:00pm 25.9 19.9 7.0 30 10.2 WSW 28 37 15 20 - - 0.0
17/10:30pm 27.7 20.8 6.5 26 11.5 WSW 32 46 17 25 - - 0.0
17/10:00pm 28.5 21.3 6.0 24 12.2 WSW 33 43 18 23 - - 0.0
17/09:30pm 31.2 25.2 -1.5 12 15.8 W 20 35 11 19 - - 0.0
17/09:00pm 32.0 24.8 -2.1 11 16.4 N 26 35 14 19 - - 0.0

Other Formats:

Comma delimited format used in spreadsheet applications
http://www.bom.gov.au/fwo/IDV60801/IDV60801.94881.axf

JavaScript Object Notation format (JSON) in row-major order
http://www.bom.gov.au/fwo/IDV60801/IDV60801.94881.json